Izumo Princess — SXMB — position and weather

sailwx.info

Track history (hours):
 
Tides and Currents Weather Stations Pressure Air Temp Water Temp Dewpoint Dewpoint Depression Visibility Wind Speed Wind Dir Waves Ship Positions

Izumo Princess

Last reported at 2016-Feb-09 00:21 UTC. Time now 2016-Feb-09 03:27 UTC.
Position N 42°43' E 008°00'.

Length 229 m; draft 8 m.

Type: Tanker. MMSI: 240611000.

Date/timePositionNaut miles runAvg speedWind from/ knotsBaromVisibWave heightAir tempDewpointWater temp
2016-Feb-09 00:21N 42°43' E 008°00'1110.1
2016-Feb-08 23:14N 42°54' E 008°06'810.3
2016-Feb-08 22:27N 43°01' E 008°09'910.4
2016-Feb-08 21:33N 43°10' E 008°14'19 9.5
2016-Feb-08 19:33N 43°28' E 008°23'9 9.3
2016-Feb-08 18:33N 43°37' E 008°28'9 9.2
2016-Feb-08 17:33N 43°45' E 008°32'1111.1
2016-Feb-08 16:33N 43°56' E 008°37'1111.4
2016-Feb-08 15:33N 44°06' E 008°43'1110.6
2016-Feb-08 14:33N 44°17' E 008°45'8 8.2
2016-Feb-08 13:33N 44°25' E 008°48'1 0.3
2016-Feb-08 08:14N 44°25' E 008°50'0 0.0
2016-Feb-08 04:32N 44°25' E 008°50'0 0.0
2016-Feb-08 03:20N 44°25' E 008°50'0 0.0
2016-Feb-07 09:08N 44°25' E 008°50'0 0.0
2016-Feb-07 07:29N 44°25' E 008°50'0 0.0
2016-Feb-07 06:29N 44°25' E 008°50'0 0.0
2016-Feb-06 20:26N 44°25' E 008°50'0 0.0
2016-Feb-06 14:32N 44°25' E 008°50'0 0.0
2016-Feb-06 13:29N 44°25' E 008°50'0 0.0
2016-Feb-06 11:26N 44°25' E 008°50'0 0.0
2016-Feb-06 10:34N 44°25' E 008°50'2 2.5
2016-Feb-06 09:33N 44°24' E 008°48'7 6.6
2016-Feb-06 08:34N 44°17' E 008°47'5 5.1
2016-Feb-06 07:34N 44°12' E 008°47'0 0.1
2016-Feb-06 06:34N 44°12' E 008°47'0 0.1
2016-Feb-06 05:33N 44°12' E 008°47'0 0.1
2016-Feb-06 04:34N 44°12' E 008°46'0 0.3
2016-Feb-06 03:34N 44°12' E 008°46'2 2.3
2016-Feb-06 02:34N 44°14' E 008°46'0 0.4
2016-Feb-06 01:34N 44°14' E 008°46'0 0.4
2016-Feb-06 00:33N 44°14' E 008°46'0 0.4
2016-Feb-05 23:34N 44°14' E 008°46'0 0.5
2016-Feb-05 22:33N 44°13' E 008°46'0 0.5
2016-Feb-05 21:33N 44°13' E 008°46'0 0.5
2016-Feb-05 20:34N 44°12' E 008°46'1 0.5
2016-Feb-05 19:33N 44°12' E 008°47'1 0.5
2016-Feb-05 18:33N 44°11' E 008°47'1 0.6
2016-Feb-05 17:34N 44°11' E 008°47'1 0.8
2016-Feb-05 16:33N 44°10' E 008°48'4 4.1
2016-Feb-05 15:33N 44°13' E 008°44'1 0.6
2016-Feb-05 14:34N 44°13' E 008°44'1 0.8
2016-Feb-05 13:33N 44°12' E 008°45'1 0.8
2016-Feb-05 12:33N 44°11' E 008°45'1 0.8
2016-Feb-05 11:33N 44°11' E 008°46'1 0.7
2016-Feb-05 10:33N 44°10' E 008°47'1 0.7
2016-Feb-05 09:33N 44°10' E 008°47'1 0.6
2016-Feb-05 08:33N 44°09' E 008°48'1 0.5
2016-Feb-05 07:33N 44°09' E 008°48'1 0.5
2016-Feb-05 06:33N 44°08' E 008°49'1 0.7
2016-Feb-05 05:33N 44°08' E 008°50'1 0.9
2016-Feb-05 04:33N 44°07' E 008°50'5 5.2
2016-Feb-05 03:34N 44°12' E 008°47'0 0.4
2016-Feb-05 02:34N 44°12' E 008°47'1 0.8
2016-Feb-05 01:33N 44°11' E 008°48'1 0.8
2016-Feb-05 00:33N 44°11' E 008°48'1 0.8
2016-Feb-04 23:33N 44°10' E 008°48'1 0.9
2016-Feb-04 22:33N 44°09' E 008°49'1 0.9
2016-Feb-04 21:33N 44°08' E 008°50'3 3.4
2016-Feb-04 20:34N 44°12' E 008°49'1 0.8
2016-Feb-04 19:34N 44°12' E 008°50'1 0.7
2016-Feb-04 18:33N 44°12' E 008°50'1 0.8
2016-Feb-04 17:34N 44°11' E 008°50'1 0.9
2016-Feb-04 16:34N 44°10' E 008°50'1 1.1
2016-Feb-04 15:34N 44°09' E 008°51'1 1.2
2016-Feb-04 14:34N 44°11' E 008°51'0 0.4
2016-Feb-04 13:34N 44°10' E 008°51'0 0.2
2016-Feb-04 12:33N 44°10' E 008°51'0 0.3
2016-Feb-04 11:34N 44°10' E 008°52'0 0.3
2016-Feb-04 10:33N 44°10' E 008°52'0 0.3
2016-Feb-04 09:34N 44°10' E 008°52'0 0.2
2016-Feb-04 08:33N 44°10' E 008°52'0 0.2
2016-Feb-04 07:34N 44°10' E 008°53'0 0.4
2016-Feb-04 06:34N 44°10' E 008°53'0 0.5
2016-Feb-04 05:34N 44°10' E 008°53'1 0.8
2016-Feb-04 04:34N 44°11' E 008°54'1 0.9
2016-Feb-04 03:34N 44°12' E 008°55'0 0.4
2016-Feb-04 02:34N 44°11' E 008°55'8 8.2
2016-Feb-04 01:33N 44°04' E 008°49'1 1.2
2016-Feb-04 00:34N 44°03' E 008°50'1 1.2
2016-Feb-03 23:33N 44°04' E 008°51'1 1.1
2016-Feb-03 22:34N 44°05' E 008°52'1 0.8
2016-Feb-03 21:34N 44°06' E 008°52'1 0.7
2016-Feb-03 20:34N 44°07' E 008°51'1 0.6
2016-Feb-03 19:34N 44°07' E 008°51'0 0.5
2016-Feb-03 18:34N 44°07' E 008°51'6 5.9
2016-Feb-03 17:34N 44°13' E 008°49'0 0.4
2016-Feb-03 16:34N 44°13' E 008°49'1 1.2
2016-Feb-03 15:33N 44°12' E 008°50'1 1.2
2016-Feb-03 14:34N 44°11' E 008°51'1 1.4
2016-Feb-03 13:34N 44°09' E 008°51'1 1.4
2016-Feb-03 12:33N 44°08' E 008°51'1 1.3
2016-Feb-03 11:34N 44°09' E 008°51'5 5.1
2016-Feb-03 10:34N 44°14' E 008°49'1 0.9
2016-Feb-03 09:34N 44°13' E 008°50'1 1.3
2016-Feb-03 08:33N 44°12' E 008°51'1 1.5
2016-Feb-03 07:34N 44°11' E 008°52'1 1.5
2016-Feb-03 06:34N 44°09' E 008°52'2 1.6
2016-Feb-03 05:33N 44°08' E 008°53'2 2.2
2016-Feb-03 04:34N 44°10' E 008°53'2 1.7
2016-Feb-03 03:34N 44°12' E 008°52'1 1.1
2016-Feb-03 02:34N 44°11' E 008°52'1 1.1
2016-Feb-03 01:33N 44°09' E 008°52'1 0.9
2016-Feb-03 00:33N 44°09' E 008°53'1 0.8
2016-Feb-02 23:34N 44°08' E 008°53'1 0.6
2016-Feb-02 22:34N 44°08' E 008°54'3 2.9
2016-Feb-02 21:34N 44°09' E 008°51'4 3.8
2016-Feb-02 20:34N 44°13' E 008°50'1 0.9
2016-Feb-02 19:33N 44°12' E 008°49'1 1.0
2016-Feb-02 18:33N 44°11' E 008°49'1 1.0
2016-Feb-02 17:34N 44°10' E 008°49'1 0.8
2016-Feb-02 16:34N 44°09' E 008°49'1 0.7
2016-Feb-02 15:34N 44°09' E 008°49'1 0.7
2016-Feb-02 14:33N 44°08' E 008°49'0 0.3
2016-Feb-02 13:33N 44°08' E 008°49'4 4.2
2016-Feb-02 12:33N 44°11' E 008°47'1 0.7
2016-Feb-02 11:34N 44°12' E 008°47'1 0.8
2016-Feb-02 10:34N 44°11' E 008°48'1 0.8
2016-Feb-02 09:34N 44°10' E 008°48'1 0.7
2016-Feb-02 08:34N 44°10' E 008°49'1 0.8
2016-Feb-02 07:34N 44°09' E 008°50'1 0.8
2016-Feb-02 06:33N 44°09' E 008°51'0 0.5
2016-Feb-02 05:34N 44°08' E 008°51'1 0.5
2016-Feb-02 04:33N 44°08' E 008°51'0 0.5
2016-Feb-02 03:33N 44°07' E 008°50'1 1.2
2016-Feb-02 02:33N 44°07' E 008°52'5 5.2
2016-Feb-02 01:33N 44°11' E 008°48'1 0.6
2016-Feb-02 00:33N 44°11' E 008°49'1 0.8
2016-Feb-01 23:33N 44°11' E 008°50'5 5.0
2016-Feb-01 22:33N 44°16' E 008°49'1 1.1
2016-Feb-01 21:33N 44°16' E 008°48'10 9.5
2016-Feb-01 20:33N 44°07' E 008°43'1212.4
2016-Feb-01 19:33N 43°56' E 008°38'1311.8
2016-Feb-01 18:29N 43°43' E 008°33'1112.0
2016-Feb-01 17:33N 43°33' E 008°26'  
Track history (hours):
 
Tides and Currents Weather Stations Pressure Air Temp Water Temp Dewpoint Dewpoint Depression Visibility Wind Speed Wind Dir Waves Ship Positions

Izumo Princess

Last reported at 2016-Feb-09 00:21 UTC. Time now 2016-Feb-09 03:27 UTC.
Position N 42°43' E 008°00'.

Length 229 m; draft 8 m.

Type: Tanker. MMSI: 240611000.

Date/timePositionNaut miles runAvg speedWind from/ knotsBaromVisibWave heightAir tempDewpointWater temp
2016-Feb-09 00:21N 42°43' E 008°00'1110.1
2016-Feb-08 23:14N 42°54' E 008°06'810.3
2016-Feb-08 22:27N 43°01' E 008°09'910.4
2016-Feb-08 21:33N 43°10' E 008°14'19 9.5
2016-Feb-08 19:33N 43°28' E 008°23'9 9.3
2016-Feb-08 18:33N 43°37' E 008°28'9 9.2
2016-Feb-08 17:33N 43°45' E 008°32'1111.1
2016-Feb-08 16:33N 43°56' E 008°37'1111.4
2016-Feb-08 15:33N 44°06' E 008°43'1110.6
2016-Feb-08 14:33N 44°17' E 008°45'8 8.2
2016-Feb-08 13:33N 44°25' E 008°48'1 0.3
2016-Feb-08 08:14N 44°25' E 008°50'0 0.0
2016-Feb-08 04:32N 44°25' E 008°50'0 0.0
2016-Feb-08 03:20N 44°25' E 008°50'0 0.0
2016-Feb-07 09:08N 44°25' E 008°50'0 0.0
2016-Feb-07 07:29N 44°25' E 008°50'0 0.0
2016-Feb-07 06:29N 44°25' E 008°50'0 0.0
2016-Feb-06 20:26N 44°25' E 008°50'0 0.0
2016-Feb-06 14:32N 44°25' E 008°50'0 0.0
2016-Feb-06 13:29N 44°25' E 008°50'0 0.0
2016-Feb-06 11:26N 44°25' E 008°50'0 0.0
2016-Feb-06 10:34N 44°25' E 008°50'2 2.5
2016-Feb-06 09:33N 44°24' E 008°48'7 6.6
2016-Feb-06 08:34N 44°17' E 008°47'5 5.1
2016-Feb-06 07:34N 44°12' E 008°47'0 0.1
2016-Feb-06 06:34N 44°12' E 008°47'0 0.1
2016-Feb-06 05:33N 44°12' E 008°47'0 0.1
2016-Feb-06 04:34N 44°12' E 008°46'0 0.3
2016-Feb-06 03:34N 44°12' E 008°46'2 2.3
2016-Feb-06 02:34N 44°14' E 008°46'0 0.4
2016-Feb-06 01:34N 44°14' E 008°46'0 0.4
2016-Feb-06 00:33N 44°14' E 008°46'0 0.4
2016-Feb-05 23:34N 44°14' E 008°46'0 0.5
2016-Feb-05 22:33N 44°13' E 008°46'0 0.5
2016-Feb-05 21:33N 44°13' E 008°46'0 0.5
2016-Feb-05 20:34N 44°12' E 008°46'1 0.5
2016-Feb-05 19:33N 44°12' E 008°47'1 0.5
2016-Feb-05 18:33N 44°11' E 008°47'1 0.6
2016-Feb-05 17:34N 44°11' E 008°47'1 0.8
2016-Feb-05 16:33N 44°10' E 008°48'4 4.1
2016-Feb-05 15:33N 44°13' E 008°44'1 0.6
2016-Feb-05 14:34N 44°13' E 008°44'1 0.8
2016-Feb-05 13:33N 44°12' E 008°45'1 0.8
2016-Feb-05 12:33N 44°11' E 008°45'1 0.8
2016-Feb-05 11:33N 44°11' E 008°46'1 0.7
2016-Feb-05 10:33N 44°10' E 008°47'1 0.7
2016-Feb-05 09:33N 44°10' E 008°47'1 0.6
2016-Feb-05 08:33N 44°09' E 008°48'1 0.5
2016-Feb-05 07:33N 44°09' E 008°48'1 0.5
2016-Feb-05 06:33N 44°08' E 008°49'1 0.7
2016-Feb-05 05:33N 44°08' E 008°50'1 0.9
2016-Feb-05 04:33N 44°07' E 008°50'5 5.2
2016-Feb-05 03:34N 44°12' E 008°47'0 0.4
2016-Feb-05 02:34N 44°12' E 008°47'1 0.8
2016-Feb-05 01:33N 44°11' E 008°48'1 0.8
2016-Feb-05 00:33N 44°11' E 008°48'1 0.8
2016-Feb-04 23:33N 44°10' E 008°48'1 0.9
2016-Feb-04 22:33N 44°09' E 008°49'1 0.9
2016-Feb-04 21:33N 44°08' E 008°50'3 3.4
2016-Feb-04 20:34N 44°12' E 008°49'1 0.8
2016-Feb-04 19:34N 44°12' E 008°50'1 0.7
2016-Feb-04 18:33N 44°12' E 008°50'1 0.8
2016-Feb-04 17:34N 44°11' E 008°50'1 0.9
2016-Feb-04 16:34N 44°10' E 008°50'1 1.1
2016-Feb-04 15:34N 44°09' E 008°51'1 1.2
2016-Feb-04 14:34N 44°11' E 008°51'0 0.4
2016-Feb-04 13:34N 44°10' E 008°51'0 0.2
2016-Feb-04 12:33N 44°10' E 008°51'0 0.3
2016-Feb-04 11:34N 44°10' E 008°52'0 0.3
2016-Feb-04 10:33N 44°10' E 008°52'0 0.3
2016-Feb-04 09:34N 44°10' E 008°52'0 0.2
2016-Feb-04 08:33N 44°10' E 008°52'0 0.2
2016-Feb-04 07:34N 44°10' E 008°53'0 0.4
2016-Feb-04 06:34N 44°10' E 008°53'0 0.5
2016-Feb-04 05:34N 44°10' E 008°53'1 0.8
2016-Feb-04 04:34N 44°11' E 008°54'1 0.9
2016-Feb-04 03:34N 44°12' E 008°55'0 0.4
2016-Feb-04 02:34N 44°11' E 008°55'8 8.2
2016-Feb-04 01:33N 44°04' E 008°49'1 1.2
2016-Feb-04 00:34N 44°03' E 008°50'1 1.2
2016-Feb-03 23:33N 44°04' E 008°51'1 1.1
2016-Feb-03 22:34N 44°05' E 008°52'1 0.8
2016-Feb-03 21:34N 44°06' E 008°52'1 0.7
2016-Feb-03 20:34N 44°07' E 008°51'1 0.6
2016-Feb-03 19:34N 44°07' E 008°51'0 0.5
2016-Feb-03 18:34N 44°07' E 008°51'6 5.9
2016-Feb-03 17:34N 44°13' E 008°49'0 0.4
2016-Feb-03 16:34N 44°13' E 008°49'1 1.2
2016-Feb-03 15:33N 44°12' E 008°50'1 1.2
2016-Feb-03 14:34N 44°11' E 008°51'1 1.4
2016-Feb-03 13:34N 44°09' E 008°51'1 1.4
2016-Feb-03 12:33N 44°08' E 008°51'1 1.3
2016-Feb-03 11:34N 44°09' E 008°51'5 5.1
2016-Feb-03 10:34N 44°14' E 008°49'1 0.9
2016-Feb-03 09:34N 44°13' E 008°50'1 1.3
2016-Feb-03 08:33N 44°12' E 008°51'1 1.5
2016-Feb-03 07:34N 44°11' E 008°52'1 1.5
2016-Feb-03 06:34N 44°09' E 008°52'2 1.6
2016-Feb-03 05:33N 44°08' E 008°53'2 2.2
2016-Feb-03 04:34N 44°10' E 008°53'2 1.7
2016-Feb-03 03:34N 44°12' E 008°52'1 1.1
2016-Feb-03 02:34N 44°11' E 008°52'1 1.1
2016-Feb-03 01:33N 44°09' E 008°52'1 0.9
2016-Feb-03 00:33N 44°09' E 008°53'1 0.8
2016-Feb-02 23:34N 44°08' E 008°53'1 0.6
2016-Feb-02 22:34N 44°08' E 008°54'3 2.9
2016-Feb-02 21:34N 44°09' E 008°51'4 3.8
2016-Feb-02 20:34N 44°13' E 008°50'1 0.9
2016-Feb-02 19:33N 44°12' E 008°49'1 1.0
2016-Feb-02 18:33N 44°11' E 008°49'1 1.0
2016-Feb-02 17:34N 44°10' E 008°49'1 0.8
2016-Feb-02 16:34N 44°09' E 008°49'1 0.7
2016-Feb-02 15:34N 44°09' E 008°49'1 0.7
2016-Feb-02 14:33N 44°08' E 008°49'0 0.3
2016-Feb-02 13:33N 44°08' E 008°49'4 4.2
2016-Feb-02 12:33N 44°11' E 008°47'1 0.7
2016-Feb-02 11:34N 44°12' E 008°47'1 0.8
2016-Feb-02 10:34N 44°11' E 008°48'1 0.8
2016-Feb-02 09:34N 44°10' E 008°48'1 0.7
2016-Feb-02 08:34N 44°10' E 008°49'1 0.8
2016-Feb-02 07:34N 44°09' E 008°50'1 0.8
2016-Feb-02 06:33N 44°09' E 008°51'0 0.5
2016-Feb-02 05:34N 44°08' E 008°51'1 0.5
2016-Feb-02 04:33N 44°08' E 008°51'0 0.5
2016-Feb-02 03:33N 44°07' E 008°50'1 1.2
2016-Feb-02 02:33N 44°07' E 008°52'5 5.2
2016-Feb-02 01:33N 44°11' E 008°48'1 0.6
2016-Feb-02 00:33N 44°11' E 008°49'1 0.8
2016-Feb-01 23:33N 44°11' E 008°50'5 5.0
2016-Feb-01 22:33N 44°16' E 008°49'1 1.1
2016-Feb-01 21:33N 44°16' E 008°48'10 9.5
2016-Feb-01 20:33N 44°07' E 008°43'1212.4
2016-Feb-01 19:33N 43°56' E 008°38'1311.8
2016-Feb-01 18:29N 43°43' E 008°33'1112.0
2016-Feb-01 17:33N 43°33' E 008°26'  

Dump ship's entire track history